sensor_id;sensor_type;location;lat;lon;timestamp;P1;durP1;ratioP1;P2;durP2;ratioP2
33836;SDS011;20140;49.356;8.812;2023-03-24T00:02:06;6.35;;;3.85;;
33836;SDS011;20140;49.356;8.812;2023-03-24T00:04:32;4.63;;;3.60;;
33836;SDS011;20140;49.356;8.812;2023-03-24T00:06:58;3.92;;;3.53;;
33836;SDS011;20140;49.356;8.812;2023-03-24T00:09:25;4.43;;;3.92;;
33836;SDS011;20140;49.356;8.812;2023-03-24T00:11:54;6.53;;;3.75;;
33836;SDS011;20140;49.356;8.812;2023-03-24T00:14:20;5.00;;;3.60;;
33836;SDS011;20140;49.356;8.812;2023-03-24T00:16:47;9.13;;;5.72;;
33836;SDS011;20140;49.356;8.812;2023-03-24T00:19:14;6.53;;;3.95;;
33836;SDS011;20140;49.356;8.812;2023-03-24T00:21:40;7.20;;;3.50;;
33836;SDS011;20140;49.356;8.812;2023-03-24T00:24:06;4.55;;;3.88;;
33836;SDS011;20140;49.356;8.812;2023-03-24T00:26:32;7.45;;;3.70;;
33836;SDS011;20140;49.356;8.812;2023-03-24T00:28:58;5.15;;;3.63;;
33836;SDS011;20140;49.356;8.812;2023-03-24T00:31:25;5.05;;;3.33;;
33836;SDS011;20140;49.356;8.812;2023-03-24T00:33:51;9.63;;;4.22;;
33836;SDS011;20140;49.356;8.812;2023-03-24T00:36:18;3.78;;;2.95;;
33836;SDS011;20140;49.356;8.812;2023-03-24T00:38:45;4.35;;;3.65;;
33836;SDS011;20140;49.356;8.812;2023-03-24T00:41:12;4.45;;;3.92;;
33836;SDS011;20140;49.356;8.812;2023-03-24T00:43:38;6.05;;;3.35;;
33836;SDS011;20140;49.356;8.812;2023-03-24T00:46:07;4.70;;;3.83;;
33836;SDS011;20140;49.356;8.812;2023-03-24T00:48:35;4.43;;;3.33;;
33836;SDS011;20140;49.356;8.812;2023-03-24T00:51:02;10.88;;;3.30;;
33836;SDS011;20140;49.356;8.812;2023-03-24T00:53:29;6.35;;;3.95;;
33836;SDS011;20140;49.356;8.812;2023-03-24T00:55:55;16.30;;;4.72;;
33836;SDS011;20140;49.356;8.812;2023-03-24T00:58:22;7.07;;;4.70;;
33836;SDS011;20140;49.356;8.812;2023-03-24T01:00:49;5.82;;;3.67;;
33836;SDS011;20140;49.356;8.812;2023-03-24T01:03:17;5.63;;;3.80;;
33836;SDS011;20140;49.356;8.812;2023-03-24T01:05:46;9.05;;;4.53;;
33836;SDS011;20140;49.356;8.812;2023-03-24T01:08:13;7.93;;;3.70;;
33836;SDS011;20140;49.356;8.812;2023-03-24T01:10:40;3.40;;;3.05;;
33836;SDS011;20140;49.356;8.812;2023-03-24T01:13:17;5.47;;;3.85;;
33836;SDS011;20140;49.356;8.812;2023-03-24T01:15:47;5.50;;;3.72;;
33836;SDS011;20140;49.356;8.812;2023-03-24T01:18:13;5.47;;;3.40;;
33836;SDS011;20140;49.356;8.812;2023-03-24T01:20:40;4.03;;;3.28;;
33836;SDS011;20140;49.356;8.812;2023-03-24T01:23:09;4.22;;;3.33;;
33836;SDS011;20140;49.356;8.812;2023-03-24T01:25:36;6.72;;;3.70;;
33836;SDS011;20140;49.356;8.812;2023-03-24T01:28:02;6.25;;;3.47;;
33836;SDS011;20140;49.356;8.812;2023-03-24T01:30:28;4.25;;;3.85;;
33836;SDS011;20140;49.356;8.812;2023-03-24T01:32:54;4.25;;;3.53;;
33836;SDS011;20140;49.356;8.812;2023-03-24T01:35:21;6.50;;;2.90;;
33836;SDS011;20140;49.356;8.812;2023-03-24T01:37:49;5.50;;;3.78;;
33836;SDS011;20140;49.356;8.812;2023-03-24T01:40:17;4.97;;;3.53;;
33836;SDS011;20140;49.356;8.812;2023-03-24T01:42:44;4.28;;;3.88;;
33836;SDS011;20140;49.356;8.812;2023-03-24T01:48:09;3.92;;;3.25;;
33836;SDS011;20140;49.356;8.812;2023-03-24T01:50:39;4.67;;;3.73;;
33836;SDS011;20140;49.356;8.812;2023-03-24T01:53:09;3.65;;;2.60;;
33836;SDS011;20140;49.356;8.812;2023-03-24T01:55:34;7.00;;;4.43;;
33836;SDS011;20140;49.356;8.812;2023-03-24T01:58:01;7.32;;;3.53;;
33836;SDS011;20140;49.356;8.812;2023-03-24T02:00:27;4.15;;;3.47;;
33836;SDS011;20140;49.356;8.812;2023-03-24T02:03:03;8.30;;;4.03;;
33836;SDS011;20140;49.356;8.812;2023-03-24T02:05:32;5.72;;;3.28;;
33836;SDS011;20140;49.356;8.812;2023-03-24T02:08:24;4.45;;;3.28;;
33836;SDS011;20140;49.356;8.812;2023-03-24T02:10:54;3.97;;;3.08;;
33836;SDS011;20140;49.356;8.812;2023-03-24T02:13:20;5.38;;;3.38;;
33836;SDS011;20140;49.356;8.812;2023-03-24T02:18:59;6.03;;;4.05;;
33836;SDS011;20140;49.356;8.812;2023-03-24T02:21:57;5.50;;;3.80;;
33836;SDS011;20140;49.356;8.812;2023-03-24T02:27:21;3.05;;;2.67;;
33836;SDS011;20140;49.356;8.812;2023-03-24T02:38:36;4.30;;;3.80;;
33836;SDS011;20140;49.356;8.812;2023-03-24T02:44:33;5.03;;;4.20;;
33836;SDS011;20140;49.356;8.812;2023-03-24T02:47:17;3.65;;;3.13;;
33836;SDS011;20140;49.356;8.812;2023-03-24T02:49:53;4.13;;;2.88;;
33836;SDS011;20140;49.356;8.812;2023-03-24T02:52:42;8.55;;;3.65;;
33836;SDS011;20140;49.356;8.812;2023-03-24T02:55:14;6.20;;;4.60;;
33836;SDS011;20140;49.356;8.812;2023-03-24T03:00:19;3.95;;;3.17;;
33836;SDS011;20140;49.356;8.812;2023-03-24T03:03:05;6.30;;;3.63;;
33836;SDS011;20140;49.356;8.812;2023-03-24T03:05:41;3.22;;;2.92;;
33836;SDS011;20140;49.356;8.812;2023-03-24T03:08:11;5.25;;;3.47;;
33836;SDS011;20140;49.356;8.812;2023-03-24T03:10:41;3.92;;;3.53;;
33836;SDS011;20140;49.356;8.812;2023-03-24T03:13:12;4.93;;;3.75;;
33836;SDS011;20140;49.356;8.812;2023-03-24T03:15:49;3.90;;;2.92;;
33836;SDS011;20140;49.356;8.812;2023-03-24T03:18:19;4.30;;;3.72;;
33836;SDS011;20140;49.356;8.812;2023-03-24T03:20:56;9.02;;;3.33;;
33836;SDS011;20140;49.356;8.812;2023-03-24T03:23:31;7.68;;;3.67;;
33836;SDS011;20140;49.356;8.812;2023-03-24T03:26:00;3.40;;;3.10;;
33836;SDS011;20140;49.356;8.812;2023-03-24T03:28:31;5.38;;;3.70;;
33836;SDS011;20140;49.356;8.812;2023-03-24T03:30:59;3.17;;;2.60;;
33836;SDS011;20140;49.356;8.812;2023-03-24T03:33:30;5.07;;;4.00;;
33836;SDS011;20140;49.356;8.812;2023-03-24T03:36:09;3.20;;;2.95;;
33836;SDS011;20140;49.356;8.812;2023-03-24T03:41:40;3.22;;;2.90;;
33836;SDS011;20140;49.356;8.812;2023-03-24T03:44:06;5.43;;;3.55;;
33836;SDS011;20140;49.356;8.812;2023-03-24T03:46:33;5.18;;;3.47;;
33836;SDS011;20140;49.356;8.812;2023-03-24T03:48:59;3.42;;;2.95;;
33836;SDS011;20140;49.356;8.812;2023-03-24T03:51:25;4.05;;;3.47;;
33836;SDS011;20140;49.356;8.812;2023-03-24T03:53:55;4.50;;;2.97;;
33836;SDS011;20140;49.356;8.812;2023-03-24T03:56:25;3.55;;;3.25;;
33836;SDS011;20140;49.356;8.812;2023-03-24T03:58:52;3.58;;;3.28;;
33836;SDS011;20140;49.356;8.812;2023-03-24T04:01:19;6.60;;;3.55;;
33836;SDS011;20140;49.356;8.812;2023-03-24T04:06:29;3.38;;;3.00;;
33836;SDS011;20140;49.356;8.812;2023-03-24T04:20:07;3.40;;;3.10;;
33836;SDS011;20140;49.356;8.812;2023-03-24T04:25:52;12.55;;;3.15;;
33836;SDS011;20140;49.356;8.812;2023-03-24T04:28:46;4.13;;;3.30;;
33836;SDS011;20140;49.356;8.812;2023-03-24T04:33:56;3.67;;;3.13;;
33836;SDS011;20140;49.356;8.812;2023-03-24T04:36:29;3.13;;;2.72;;
33836;SDS011;20140;49.356;8.812;2023-03-24T04:39:10;3.45;;;2.45;;
33836;SDS011;20140;49.356;8.812;2023-03-24T04:41:39;4.10;;;3.50;;
33836;SDS011;20140;49.356;8.812;2023-03-24T04:44:07;4.72;;;3.20;;
33836;SDS011;20140;49.356;8.812;2023-03-24T04:46:34;5.18;;;3.97;;
33836;SDS011;20140;49.356;8.812;2023-03-24T04:49:00;4.47;;;3.70;;
33836;SDS011;20140;49.356;8.812;2023-03-24T04:51:27;5.47;;;3.80;;
33836;SDS011;20140;49.356;8.812;2023-03-24T04:53:53;4.78;;;4.38;;
33836;SDS011;20140;49.356;8.812;2023-03-24T04:56:29;5.28;;;3.55;;
33836;SDS011;20140;49.356;8.812;2023-03-24T04:58:55;4.60;;;3.45;;
33836;SDS011;20140;49.356;8.812;2023-03-24T05:01:22;4.38;;;3.38;;
33836;SDS011;20140;49.356;8.812;2023-03-24T05:03:49;4.25;;;3.35;;
33836;SDS011;20140;49.356;8.812;2023-03-24T05:06:15;5.90;;;4.35;;
33836;SDS011;20140;49.356;8.812;2023-03-24T05:08:41;5.07;;;3.83;;
33836;SDS011;20140;49.356;8.812;2023-03-24T05:11:07;5.60;;;3.55;;
33836;SDS011;20140;49.356;8.812;2023-03-24T05:13:32;10.35;;;4.30;;
33836;SDS011;20140;49.356;8.812;2023-03-24T05:15:58;6.78;;;3.70;;
33836;SDS011;20140;49.356;8.812;2023-03-24T05:18:23;4.18;;;3.72;;
33836;SDS011;20140;49.356;8.812;2023-03-24T05:20:49;4.43;;;3.92;;
33836;SDS011;20140;49.356;8.812;2023-03-24T05:23:15;6.55;;;4.82;;
33836;SDS011;20140;49.356;8.812;2023-03-24T05:25:41;6.15;;;4.10;;
33836;SDS011;20140;49.356;8.812;2023-03-24T05:28:06;4.80;;;4.32;;
33836;SDS011;20140;49.356;8.812;2023-03-24T05:30:32;8.50;;;4.97;;
33836;SDS011;20140;49.356;8.812;2023-03-24T05:32:58;5.97;;;4.30;;
33836;SDS011;20140;49.356;8.812;2023-03-24T05:35:24;5.28;;;4.80;;
33836;SDS011;20140;49.356;8.812;2023-03-24T05:37:49;5.93;;;5.28;;
33836;SDS011;20140;49.356;8.812;2023-03-24T05:40:15;5.72;;;5.18;;
33836;SDS011;20140;49.356;8.812;2023-03-24T05:42:41;7.00;;;6.03;;
33836;SDS011;20140;49.356;8.812;2023-03-24T05:45:07;9.50;;;6.32;;
33836;SDS011;20140;49.356;8.812;2023-03-24T05:47:34;12.15;;;6.30;;
33836;SDS011;20140;49.356;8.812;2023-03-24T05:49:59;8.30;;;5.80;;
33836;SDS011;20140;49.356;8.812;2023-03-24T05:52:25;7.93;;;6.78;;
33836;SDS011;20140;49.356;8.812;2023-03-24T05:54:50;9.52;;;6.70;;
33836;SDS011;20140;49.356;8.812;2023-03-24T05:57:16;8.75;;;6.90;;
33836;SDS011;20140;49.356;8.812;2023-03-24T05:59:43;8.30;;;6.75;;
33836;SDS011;20140;49.356;8.812;2023-03-24T06:02:08;11.40;;;7.43;;
33836;SDS011;20140;49.356;8.812;2023-03-24T06:04:34;7.95;;;7.13;;
33836;SDS011;20140;49.356;8.812;2023-03-24T06:07:00;10.85;;;8.20;;
33836;SDS011;20140;49.356;8.812;2023-03-24T06:09:30;8.15;;;7.13;;
33836;SDS011;20140;49.356;8.812;2023-03-24T06:14:27;10.25;;;7.80;;
33836;SDS011;20140;49.356;8.812;2023-03-24T06:16:53;13.52;;;9.00;;
33836;SDS011;20140;49.356;8.812;2023-03-24T06:19:23;11.00;;;8.05;;
33836;SDS011;20140;49.356;8.812;2023-03-24T06:21:49;11.60;;;9.73;;
33836;SDS011;20140;49.356;8.812;2023-03-24T06:24:15;11.80;;;9.00;;
33836;SDS011;20140;49.356;8.812;2023-03-24T06:26:44;13.93;;;10.07;;
33836;SDS011;20140;49.356;8.812;2023-03-24T06:29:10;9.07;;;7.88;;
33836;SDS011;20140;49.356;8.812;2023-03-24T06:31:36;12.77;;;7.78;;
33836;SDS011;20140;49.356;8.812;2023-03-24T06:34:03;9.60;;;8.07;;
33836;SDS011;20140;49.356;8.812;2023-03-24T06:36:29;11.27;;;8.63;;
33836;SDS011;20140;49.356;8.812;2023-03-24T06:38:55;13.00;;;10.13;;
33836;SDS011;20140;49.356;8.812;2023-03-24T06:41:21;10.02;;;8.25;;
33836;SDS011;20140;49.356;8.812;2023-03-24T06:43:47;10.40;;;8.75;;
33836;SDS011;20140;49.356;8.812;2023-03-24T06:46:12;11.18;;;10.02;;
33836;SDS011;20140;49.356;8.812;2023-03-24T06:48:38;15.25;;;8.85;;
33836;SDS011;20140;49.356;8.812;2023-03-24T06:51:04;9.60;;;7.28;;
33836;SDS011;20140;49.356;8.812;2023-03-24T06:53:30;9.27;;;6.97;;
33836;SDS011;20140;49.356;8.812;2023-03-24T06:55:55;10.65;;;8.40;;
33836;SDS011;20140;49.356;8.812;2023-03-24T06:58:21;8.50;;;7.35;;
33836;SDS011;20140;49.356;8.812;2023-03-24T07:00:46;13.70;;;7.63;;
33836;SDS011;20140;49.356;8.812;2023-03-24T07:03:14;11.63;;;8.63;;
33836;SDS011;20140;49.356;8.812;2023-03-24T07:05:40;12.27;;;7.22;;
33836;SDS011;20140;49.356;8.812;2023-03-24T07:08:11;8.07;;;7.00;;
33836;SDS011;20140;49.356;8.812;2023-03-24T07:10:38;9.60;;;7.40;;
33836;SDS011;20140;49.356;8.812;2023-03-24T07:13:04;7.43;;;6.72;;
33836;SDS011;20140;49.356;8.812;2023-03-24T07:15:31;8.57;;;6.68;;
33836;SDS011;20140;49.356;8.812;2023-03-24T07:17:57;10.65;;;7.20;;
33836;SDS011;20140;49.356;8.812;2023-03-24T07:20:22;7.18;;;6.50;;
33836;SDS011;20140;49.356;8.812;2023-03-24T07:22:48;7.13;;;6.15;;
33836;SDS011;20140;49.356;8.812;2023-03-24T07:25:13;7.40;;;5.70;;
33836;SDS011;20140;49.356;8.812;2023-03-24T07:27:44;7.35;;;5.70;;
33836;SDS011;20140;49.356;8.812;2023-03-24T07:30:10;8.13;;;5.93;;
33836;SDS011;20140;49.356;8.812;2023-03-24T07:32:37;6.85;;;6.25;;
33836;SDS011;20140;49.356;8.812;2023-03-24T07:35:04;7.95;;;5.50;;
33836;SDS011;20140;49.356;8.812;2023-03-24T07:37:31;5.95;;;4.90;;
33836;SDS011;20140;49.356;8.812;2023-03-24T07:39:56;6.65;;;5.97;;
33836;SDS011;20140;49.356;8.812;2023-03-24T07:42:22;6.93;;;5.07;;
33836;SDS011;20140;49.356;8.812;2023-03-24T07:44:48;7.32;;;5.72;;
33836;SDS011;20140;49.356;8.812;2023-03-24T07:47:13;9.85;;;6.50;;
33836;SDS011;20140;49.356;8.812;2023-03-24T07:49:39;6.07;;;5.43;;
33836;SDS011;20140;49.356;8.812;2023-03-24T07:52:04;8.15;;;6.20;;
33836;SDS011;20140;49.356;8.812;2023-03-24T07:54:30;8.88;;;5.20;;
33836;SDS011;20140;49.356;8.812;2023-03-24T07:56:58;5.32;;;4.00;;
33836;SDS011;20140;49.356;8.812;2023-03-24T07:59:24;5.05;;;4.57;;
33836;SDS011;20140;49.356;8.812;2023-03-24T08:01:50;5.32;;;4.82;;
33836;SDS011;20140;49.356;8.812;2023-03-24T08:04:15;4.22;;;3.83;;
33836;SDS011;20140;49.356;8.812;2023-03-24T08:06:41;5.93;;;3.95;;
33836;SDS011;20140;49.356;8.812;2023-03-24T08:09:07;6.13;;;4.47;;
33836;SDS011;20140;49.356;8.812;2023-03-24T08:11:33;6.18;;;4.15;;
33836;SDS011;20140;49.356;8.812;2023-03-24T08:14:00;4.93;;;4.18;;
33836;SDS011;20140;49.356;8.812;2023-03-24T08:16:25;8.40;;;3.97;;
33836;SDS011;20140;49.356;8.812;2023-03-24T08:18:51;7.00;;;4.90;;
33836;SDS011;20140;49.356;8.812;2023-03-24T08:21:16;3.83;;;3.42;;
33836;SDS011;20140;49.356;8.812;2023-03-24T08:23:43;9.07;;;4.30;;
33836;SDS011;20140;49.356;8.812;2023-03-24T08:26:09;3.97;;;3.58;;
33836;SDS011;20140;49.356;8.812;2023-03-24T08:28:37;3.97;;;3.03;;
33836;SDS011;20140;49.356;8.812;2023-03-24T08:31:09;6.60;;;4.13;;
33836;SDS011;20140;49.356;8.812;2023-03-24T08:33:34;7.80;;;3.42;;
33836;SDS011;20140;49.356;8.812;2023-03-24T08:36:01;10.25;;;4.10;;
33836;SDS011;20140;49.356;8.812;2023-03-24T08:38:30;4.93;;;4.47;;
33836;SDS011;20140;49.356;8.812;2023-03-24T08:41:07;4.93;;;3.35;;
33836;SDS011;20140;49.356;8.812;2023-03-24T08:43:33;7.20;;;3.70;;
33836;SDS011;20140;49.356;8.812;2023-03-24T08:46:00;4.57;;;3.38;;
33836;SDS011;20140;49.356;8.812;2023-03-24T08:48:26;4.70;;;3.83;;
33836;SDS011;20140;49.356;8.812;2023-03-24T08:50:53;5.15;;;4.68;;
33836;SDS011;20140;49.356;8.812;2023-03-24T08:53:20;4.00;;;3.60;;
33836;SDS011;20140;49.356;8.812;2023-03-24T08:55:46;7.07;;;4.30;;
33836;SDS011;20140;49.356;8.812;2023-03-24T08:58:15;4.15;;;3.22;;
33836;SDS011;20140;49.356;8.812;2023-03-24T09:00:45;3.85;;;2.90;;
33836;SDS011;20140;49.356;8.812;2023-03-24T09:03:12;3.45;;;3.10;;
33836;SDS011;20140;49.356;8.812;2023-03-24T09:05:42;3.10;;;2.80;;
33836;SDS011;20140;49.356;8.812;2023-03-24T09:08:08;3.58;;;3.22;;
33836;SDS011;20140;49.356;8.812;2023-03-24T09:10:34;3.10;;;2.80;;
33836;SDS011;20140;49.356;8.812;2023-03-24T09:13:00;4.97;;;2.97;;
33836;SDS011;20140;49.356;8.812;2023-03-24T09:15:25;4.88;;;2.90;;
33836;SDS011;20140;49.356;8.812;2023-03-24T09:17:51;3.80;;;3.17;;
33836;SDS011;20140;49.356;8.812;2023-03-24T09:20:16;4.30;;;3.10;;
33836;SDS011;20140;49.356;8.812;2023-03-24T09:22:43;5.15;;;2.92;;
33836;SDS011;20140;49.356;8.812;2023-03-24T09:25:11;3.92;;;3.20;;
33836;SDS011;20140;49.356;8.812;2023-03-24T09:27:38;4.63;;;3.88;;
33836;SDS011;20140;49.356;8.812;2023-03-24T09:30:04;4.72;;;2.83;;
33836;SDS011;20140;49.356;8.812;2023-03-24T09:32:30;2.95;;;2.63;;
33836;SDS011;20140;49.356;8.812;2023-03-24T09:34:57;3.25;;;2.53;;
33836;SDS011;20140;49.356;8.812;2023-03-24T09:37:24;2.45;;;2.25;;
33836;SDS011;20140;49.356;8.812;2023-03-24T09:39:52;2.88;;;2.40;;
33836;SDS011;20140;49.356;8.812;2023-03-24T09:42:20;2.53;;;2.20;;
33836;SDS011;20140;49.356;8.812;2023-03-24T09:44:49;2.83;;;2.60;;
33836;SDS011;20140;49.356;8.812;2023-03-24T09:50:02;3.65;;;2.30;;
33836;SDS011;20140;49.356;8.812;2023-03-24T09:52:34;5.47;;;2.30;;
33836;SDS011;20140;49.356;8.812;2023-03-24T09:55:04;2.60;;;2.35;;
33836;SDS011;20140;49.356;8.812;2023-03-24T09:57:35;2.53;;;2.25;;
33836;SDS011;20140;49.356;8.812;2023-03-24T10:00:15;3.22;;;2.65;;
33836;SDS011;20140;49.356;8.812;2023-03-24T10:02:44;2.28;;;2.08;;
33836;SDS011;20140;49.356;8.812;2023-03-24T10:05:18;2.38;;;2.17;;
33836;SDS011;20140;49.356;8.812;2023-03-24T10:07:56;2.10;;;1.90;;
33836;SDS011;20140;49.356;8.812;2023-03-24T10:10:30;3.75;;;1.90;;
33836;SDS011;20140;49.356;8.812;2023-03-24T10:13:19;2.85;;;2.08;;
33836;SDS011;20140;49.356;8.812;2023-03-24T10:15:57;1.30;;;1.20;;
33836;SDS011;20140;49.356;8.812;2023-03-24T10:21:26;2.17;;;2.05;;
33836;SDS011;20140;49.356;8.812;2023-03-24T10:24:17;3.78;;;1.90;;
33836;SDS011;20140;49.356;8.812;2023-03-24T10:27:10;2.67;;;2.42;;
33836;SDS011;20140;49.356;8.812;2023-03-24T10:29:48;2.30;;;1.65;;
33836;SDS011;20140;49.356;8.812;2023-03-24T10:32:19;2.58;;;2.38;;
33836;SDS011;20140;49.356;8.812;2023-03-24T10:34:51;3.33;;;3.00;;
33836;SDS011;20140;49.356;8.812;2023-03-24T10:37:21;4.30;;;3.00;;
33836;SDS011;20140;49.356;8.812;2023-03-24T10:39:47;4.18;;;2.50;;
33836;SDS011;20140;49.356;8.812;2023-03-24T10:42:14;3.33;;;2.40;;
33836;SDS011;20140;49.356;8.812;2023-03-24T10:44:42;4.35;;;3.60;;
33836;SDS011;20140;49.356;8.812;2023-03-24T10:47:09;5.93;;;3.28;;
33836;SDS011;20140;49.356;8.812;2023-03-24T10:49:38;3.95;;;3.40;;
33836;SDS011;20140;49.356;8.812;2023-03-24T10:52:16;5.00;;;3.45;;
33836;SDS011;20140;49.356;8.812;2023-03-24T10:54:51;4.28;;;3.10;;
33836;SDS011;20140;49.356;8.812;2023-03-24T10:57:30;3.95;;;3.50;;
33836;SDS011;20140;49.356;8.812;2023-03-24T11:00:06;3.65;;;3.05;;
33836;SDS011;20140;49.356;8.812;2023-03-24T11:05:32;3.22;;;2.63;;
33836;SDS011;20140;49.356;8.812;2023-03-24T11:08:11;4.25;;;3.08;;
33836;SDS011;20140;49.356;8.812;2023-03-24T11:10:57;3.63;;;3.33;;
33836;SDS011;20140;49.356;8.812;2023-03-24T11:13:32;4.97;;;3.60;;
33836;SDS011;20140;49.356;8.812;2023-03-24T11:18:53;3.13;;;2.72;;
33836;SDS011;20140;49.356;8.812;2023-03-24T11:21:27;3.72;;;2.55;;
33836;SDS011;20140;49.356;8.812;2023-03-24T11:23:58;4.43;;;2.50;;
33836;SDS011;20140;49.356;8.812;2023-03-24T11:29:14;2.97;;;2.72;;
33836;SDS011;20140;49.356;8.812;2023-03-24T11:32:20;5.25;;;2.47;;
33836;SDS011;20140;49.356;8.812;2023-03-24T11:34:43;3.97;;;2.42;;
33836;SDS011;20140;49.356;8.812;2023-03-24T11:37:13;4.18;;;3.30;;
33836;SDS011;20140;49.356;8.812;2023-03-24T11:39:43;3.08;;;2.72;;
33836;SDS011;20140;49.356;8.812;2023-03-24T11:42:37;3.08;;;2.78;;
33836;SDS011;20140;49.356;8.812;2023-03-24T11:45:18;6.38;;;2.50;;
33836;SDS011;20140;49.356;8.812;2023-03-24T11:47:57;3.20;;;2.60;;
33836;SDS011;20140;49.356;8.812;2023-03-24T11:50:27;1.88;;;1.73;;
33836;SDS011;20140;49.356;8.812;2023-03-24T11:52:59;2.67;;;1.10;;
33836;SDS011;20140;49.356;8.812;2023-03-24T11:58:32;0.85;;;0.57;;
33836;SDS011;20140;49.356;8.812;2023-03-24T12:17:57;1.10;;;0.88;;
33836;SDS011;20140;49.356;8.812;2023-03-24T12:23:36;0.73;;;0.70;;
33836;SDS011;20140;49.356;8.812;2023-03-24T12:26:21;1.95;;;0.40;;
33836;SDS011;20140;49.356;8.812;2023-03-24T12:37:58;2.38;;;0.75;;
33836;SDS011;20140;49.356;8.812;2023-03-24T12:40:59;1.00;;;0.70;;
33836;SDS011;20140;49.356;8.812;2023-03-24T12:44:05;2.63;;;1.00;;
33836;SDS011;20140;49.356;8.812;2023-03-24T12:46:57;1.27;;;1.17;;
33836;SDS011;20140;49.356;8.812;2023-03-24T12:49:54;3.25;;;1.40;;
33836;SDS011;20140;49.356;8.812;2023-03-24T12:55:15;5.18;;;0.82;;
33836;SDS011;20140;49.356;8.812;2023-03-24T12:57:59;1.65;;;1.15;;
33836;SDS011;20140;49.356;8.812;2023-03-24T13:00:36;1.27;;;1.17;;
33836;SDS011;20140;49.356;8.812;2023-03-24T13:06:26;4.15;;;1.42;;
33836;SDS011;20140;49.356;8.812;2023-03-24T13:09:04;2.83;;;1.48;;
33836;SDS011;20140;49.356;8.812;2023-03-24T13:11:55;4.15;;;1.52;;
33836;SDS011;20140;49.356;8.812;2023-03-24T13:14:47;5.05;;;1.17;;
33836;SDS011;20140;49.356;8.812;2023-03-24T13:17:36;3.38;;;1.00;;
33836;SDS011;20140;49.356;8.812;2023-03-24T13:20:12;2.28;;;0.85;;
33836;SDS011;20140;49.356;8.812;2023-03-24T13:22:44;1.85;;;1.00;;
33836;SDS011;20140;49.356;8.812;2023-03-24T13:25:19;3.17;;;1.50;;
33836;SDS011;20140;49.356;8.812;2023-03-24T13:28:03;1.20;;;0.90;;
33836;SDS011;20140;49.356;8.812;2023-03-24T13:30:39;3.05;;;1.85;;
33836;SDS011;20140;49.356;8.812;2023-03-24T13:33:15;2.13;;;1.05;;
33836;SDS011;20140;49.356;8.812;2023-03-24T13:38:54;2.08;;;1.10;;
33836;SDS011;20140;49.356;8.812;2023-03-24T13:41:23;1.88;;;0.90;;
33836;SDS011;20140;49.356;8.812;2023-03-24T13:44:01;3.08;;;1.52;;
33836;SDS011;20140;49.356;8.812;2023-03-24T13:46:34;2.42;;;0.95;;
33836;SDS011;20140;49.356;8.812;2023-03-24T13:49:01;1.88;;;1.00;;
33836;SDS011;20140;49.356;8.812;2023-03-24T13:51:33;3.35;;;1.27;;
33836;SDS011;20140;49.356;8.812;2023-03-24T13:54:15;6.07;;;1.52;;
33836;SDS011;20140;49.356;8.812;2023-03-24T13:57:01;4.15;;;1.13;;
33836;SDS011;20140;49.356;8.812;2023-03-24T14:15:31;2.08;;;0.82;;
33836;SDS011;20140;49.356;8.812;2023-03-24T14:20:59;2.17;;;1.30;;
33836;SDS011;20140;49.356;8.812;2023-03-24T14:28:47;2.17;;;1.10;;
33836;SDS011;20140;49.356;8.812;2023-03-24T14:33:54;1.23;;;0.80;;
33836;SDS011;20140;49.356;8.812;2023-03-24T14:36:28;3.65;;;1.15;;
33836;SDS011;20140;49.356;8.812;2023-03-24T14:41:47;2.55;;;0.95;;
33836;SDS011;20140;49.356;8.812;2023-03-24T14:44:15;4.03;;;1.25;;
33836;SDS011;20140;49.356;8.812;2023-03-24T14:47:15;5.90;;;1.30;;
33836;SDS011;20140;49.356;8.812;2023-03-24T14:49:43;3.50;;;1.17;;
33836;SDS011;20140;49.356;8.812;2023-03-24T14:52:27;3.17;;;1.00;;
33836;SDS011;20140;49.356;8.812;2023-03-24T14:55:08;3.25;;;1.02;;
33836;SDS011;20140;49.356;8.812;2023-03-24T14:57:38;2.88;;;0.98;;
33836;SDS011;20140;49.356;8.812;2023-03-24T15:02:44;5.05;;;2.10;;
33836;SDS011;20140;49.356;8.812;2023-03-24T15:08:10;6.28;;;1.40;;
33836;SDS011;20140;49.356;8.812;2023-03-24T15:10:59;6.18;;;1.52;;
33836;SDS011;20140;49.356;8.812;2023-03-24T15:16:03;4.72;;;1.13;;
33836;SDS011;20140;49.356;8.812;2023-03-24T15:18:35;3.60;;;1.97;;
33836;SDS011;20140;49.356;8.812;2023-03-24T15:21:14;4.82;;;1.80;;
33836;SDS011;20140;49.356;8.812;2023-03-24T15:26:54;2.58;;;1.38;;
33836;SDS011;20140;49.356;8.812;2023-03-24T15:29:38;5.22;;;1.23;;
33836;SDS011;20140;49.356;8.812;2023-03-24T15:32:05;3.00;;;1.42;;
33836;SDS011;20140;49.356;8.812;2023-03-24T15:34:40;7.38;;;2.83;;
33836;SDS011;20140;49.356;8.812;2023-03-24T15:37:21;3.75;;;1.55;;
33836;SDS011;20140;49.356;8.812;2023-03-24T15:40:01;3.95;;;1.33;;
33836;SDS011;20140;49.356;8.812;2023-03-24T15:42:29;4.80;;;1.85;;
33836;SDS011;20140;49.356;8.812;2023-03-24T15:44:54;2.33;;;1.15;;
33836;SDS011;20140;49.356;8.812;2023-03-24T15:47:30;1.83;;;1.10;;
33836;SDS011;20140;49.356;8.812;2023-03-24T15:50:00;2.00;;;1.13;;
33836;SDS011;20140;49.356;8.812;2023-03-24T15:52:32;5.03;;;1.45;;
33836;SDS011;20140;49.356;8.812;2023-03-24T15:57:50;3.20;;;1.75;;
33836;SDS011;20140;49.356;8.812;2023-03-24T16:00:22;1.58;;;1.02;;
33836;SDS011;20140;49.356;8.812;2023-03-24T16:02:54;3.85;;;1.98;;
33836;SDS011;20140;49.356;8.812;2023-03-24T16:05:24;5.63;;;1.60;;
33836;SDS011;20140;49.356;8.812;2023-03-24T16:07:56;4.47;;;1.15;;
33836;SDS011;20140;49.356;8.812;2023-03-24T16:13:19;1.33;;;1.08;;
33836;SDS011;20140;49.356;8.812;2023-03-24T16:18:46;3.58;;;1.45;;
33836;SDS011;20140;49.356;8.812;2023-03-24T16:23:42;3.33;;;1.27;;
33836;SDS011;20140;49.356;8.812;2023-03-24T16:26:18;3.83;;;1.23;;
33836;SDS011;20140;49.356;8.812;2023-03-24T16:28:46;2.90;;;1.30;;
33836;SDS011;20140;49.356;8.812;2023-03-24T16:31:22;2.65;;;0.88;;
33836;SDS011;20140;49.356;8.812;2023-03-24T16:33:50;2.03;;;0.95;;
33836;SDS011;20140;49.356;8.812;2023-03-24T16:36:16;1.15;;;0.65;;
33836;SDS011;20140;49.356;8.812;2023-03-24T16:38:45;1.90;;;1.20;;
33836;SDS011;20140;49.356;8.812;2023-03-24T16:41:12;5.78;;;1.63;;
33836;SDS011;20140;49.356;8.812;2023-03-24T16:43:41;1.40;;;1.00;;
33836;SDS011;20140;49.356;8.812;2023-03-24T16:46:14;2.72;;;0.90;;
33836;SDS011;20140;49.356;8.812;2023-03-24T16:48:42;4.15;;;1.10;;
33836;SDS011;20140;49.356;8.812;2023-03-24T16:51:09;2.30;;;1.08;;
33836;SDS011;20140;49.356;8.812;2023-03-24T16:53:37;1.35;;;0.73;;
33836;SDS011;20140;49.356;8.812;2023-03-24T16:56:03;0.98;;;0.98;;
33836;SDS011;20140;49.356;8.812;2023-03-24T16:58:29;1.35;;;0.90;;
33836;SDS011;20140;49.356;8.812;2023-03-24T17:00:54;3.83;;;0.90;;
33836;SDS011;20140;49.356;8.812;2023-03-24T17:03:22;2.90;;;1.05;;
33836;SDS011;20140;49.356;8.812;2023-03-24T17:05:49;0.88;;;0.88;;
33836;SDS011;20140;49.356;8.812;2023-03-24T17:08:15;1.77;;;1.00;;
33836;SDS011;20140;49.356;8.812;2023-03-24T17:10:43;2.08;;;0.90;;
33836;SDS011;20140;49.356;8.812;2023-03-24T17:13:16;2.00;;;1.35;;
33836;SDS011;20140;49.356;8.812;2023-03-24T17:15:43;2.63;;;1.52;;
33836;SDS011;20140;49.356;8.812;2023-03-24T17:18:09;1.17;;;0.98;;
33836;SDS011;20140;49.356;8.812;2023-03-24T17:20:35;1.98;;;1.05;;
33836;SDS011;20140;49.356;8.812;2023-03-24T17:23:03;3.33;;;2.45;;
33836;SDS011;20140;49.356;8.812;2023-03-24T17:25:31;2.33;;;1.60;;
33836;SDS011;20140;49.356;8.812;2023-03-24T17:27:56;2.47;;;1.60;;
33836;SDS011;20140;49.356;8.812;2023-03-24T17:30:22;2.20;;;1.67;;
33836;SDS011;20140;49.356;8.812;2023-03-24T17:32:49;1.50;;;1.20;;
33836;SDS011;20140;49.356;8.812;2023-03-24T17:35:16;5.55;;;1.80;;
33836;SDS011;20140;49.356;8.812;2023-03-24T17:37:43;5.30;;;1.98;;
33836;SDS011;20140;49.356;8.812;2023-03-24T17:40:10;1.70;;;1.33;;
33836;SDS011;20140;49.356;8.812;2023-03-24T17:42:38;1.65;;;1.38;;